Luwingu Airport


Codes: FLLG/
Name: Luwingu Airport
City: Luwingu
Country: Zambia
Elevation: 4650 ft.

Photos at Luwingu Airport


   Photos courtesy of SpottingLog. You can add your own sightings and photos by signing up for a free trial today.



No photos found.

Weather at Luwingu Airport


Time (UTC)DescriptionTempratureWindCloud coverageVisibilityPressureHumidity
21-Feb-2024 03:00Scattered Clouds16°C2 mph, NE48%10000m1013hPa97%
21-Feb-2024 06:00Broken Clouds17°C4 mph, E51%10000m1013hPa93%
21-Feb-2024 09:00Scattered Clouds22°C4 mph, SE42%10000m1012hPa73%
21-Feb-2024 12:00Scattered Clouds27°C4 mph, S46%10000m1009hPa53%
21-Feb-2024 15:00Light Rain24°C2 mph, S91%10000m1008hPa77%
21-Feb-2024 18:00Overcast Clouds19°C0 mph, N93%10000m1011hPa86%
21-Feb-2024 21:00Overcast Clouds18°C2 mph, NE100%10000m1012hPa89%
22-Feb-2024 00:00Overcast Clouds17°C4 mph, NE100%10000m1010hPa93%
22-Feb-2024 03:00Overcast Clouds17°C4 mph, E94%10000m1012hPa97%
22-Feb-2024 06:00Overcast Clouds20°C7 mph, E95%10000m1013hPa86%
22-Feb-2024 09:00Light Rain25°C4 mph, E77%10000m1010hPa68%
22-Feb-2024 12:00Light Rain26°C2 mph, SE67%10000m1008hPa68%
22-Feb-2024 15:00Light Rain23°C2 mph, S100%7557m1008hPa86%
22-Feb-2024 18:00Light Rain19°C2 mph, NE100%10000m1010hPa88%
22-Feb-2024 21:00Light Rain19°C2 mph, E100%10000m1012hPa92%
23-Feb-2024 00:00Light Rain18°C4 mph, NE100%10000m1010hPa96%
23-Feb-2024 03:00Light Rain17°C4 mph, NE100%10000m1012hPa96%
23-Feb-2024 06:00Overcast Clouds19°C4 mph, E100%10000m1013hPa92%
23-Feb-2024 09:00Moderate Rain23°C4 mph, E100%7747m1012hPa81%
23-Feb-2024 12:00Light Rain24°C4 mph, SE100%4962m1009hPa73%
23-Feb-2024 15:00Moderate Rain22°C2 mph, NE100%10000m1009hPa89%
23-Feb-2024 18:00Moderate Rain18°C9 mph, N100%7718m1013hPa98%
23-Feb-2024 21:00Light Rain18°C7 mph, N96%10000m1014hPa98%
24-Feb-2024 00:00Light Rain17°C4 mph, NE98%10000m1012hPa97%
24-Feb-2024 03:00Light Rain17°C2 mph, NE100%10000m1013hPa95%
24-Feb-2024 06:00Light Rain18°C4 mph, E100%10000m1016hPa94%
24-Feb-2024 09:00Light Rain22°C7 mph, NE98%7239m1015hPa82%
24-Feb-2024 12:00Moderate Rain21°C9 mph, N99%10000m1013hPa88%
24-Feb-2024 15:00Light Rain17°C9 mph, N99%10000m1013hPa95%
24-Feb-2024 18:00Overcast Clouds16°C0 mph, NW99%10000m1015hPa97%
24-Feb-2024 21:00Overcast Clouds16°C2 mph, NE100%10000m1016hPa96%
25-Feb-2024 00:00Overcast Clouds16°C2 mph, NE100%10000m1014hPa95%
25-Feb-2024 03:00Overcast Clouds16°C2 mph, NE99%10000m1015hPa92%
25-Feb-2024 06:00Overcast Clouds18°C2 mph, E100%10000m1016hPa88%
25-Feb-2024 09:00Light Rain22°C4 mph, SE98%10000m1015hPa80%
25-Feb-2024 12:00Moderate Rain22°C2 mph, SE99%10000m1012hPa84%
25-Feb-2024 15:00Light Rain22°C2 mph, S95%10000m1011hPa84%
25-Feb-2024 18:00Light Rain18°C2 mph, NE96%10000m1013hPa92%
25-Feb-2024 21:00Broken Clouds17°C2 mph, NE84%10000m1015hPa94%
26-Feb-2024 00:00Overcast Clouds17°C4 mph, N92%10000m1013hPa94%